Mb-1210 — UEQC — position and weather

sailwx.info

Track history (hours):
 
Tides and Currents Weather Stations Pressure Air Temp Water Temp Dewpoint Dewpoint Depression Visibility Wind Speed Wind Dir Waves Ship Positions

Mb-1210

Last reported at 2014-Nov-03 16:33 UTC. Time now 2014-Nov-27 13:13 UTC.
Position N 59°56' E 030°17'.
Warning: this ship's position is 23 days out of date.

Length 50 m; draft 2.4 m.

Type: Towing. MMSI: 273421120.

Date/timePositionNaut miles runAvg speedWind from/ knotsBaromVisibWave heightAir tempDewpointWater temp
2014-Nov-03 16:33N 59°56' E 030°17'0 0.0
2014-Nov-03 14:33N 59°56' E 030°17'0 0.0
2014-Nov-03 13:33N 59°56' E 030°17'0 0.0
2014-Nov-03 12:33N 59°56' E 030°17'0 0.0
2014-Nov-03 11:33N 59°56' E 030°17'1 0.1
2014-Nov-03 00:33N 59°55' E 030°16'  
2014-Oct-28 00:22N 59°57' E 030°24'2 2.7
2014-Oct-27 23:33N 59°57' E 030°20'1 1.4
2014-Oct-27 22:33N 59°57' E 030°17'0 0.0
2014-Oct-27 21:33N 59°57' E 030°17'0 0.0
2014-Oct-27 20:33N 59°57' E 030°17'0 0.0
2014-Oct-27 19:33N 59°57' E 030°17'0 0.0
2014-Oct-27 18:33N 59°57' E 030°17'0 0.0
2014-Oct-27 17:33N 59°57' E 030°17'0 0.0
2014-Oct-27 16:33N 59°57' E 030°17'0 0.0
2014-Oct-27 15:33N 59°57' E 030°17'0 0.0
2014-Oct-27 14:33N 59°57' E 030°17'0 0.0
2014-Oct-27 13:33N 59°57' E 030°17'0 0.0
2014-Oct-27 12:33N 59°57' E 030°17'0 0.0
2014-Oct-27 11:33N 59°57' E 030°17'0 0.0
2014-Oct-27 10:33N 59°57' E 030°17'0 0.0
2014-Oct-27 09:33N 59°57' E 030°17'0 0.0
2014-Oct-27 08:33N 59°57' E 030°17'3 2.7
2014-Oct-27 07:32N 59°58' E 030°12'3 0.5
2014-Oct-27 00:33N 59°55' E 030°16'  
Track history (hours):
 
Tides and Currents Weather Stations Pressure Air Temp Water Temp Dewpoint Dewpoint Depression Visibility Wind Speed Wind Dir Waves Ship Positions

Mb-1210

Last reported at 2014-Nov-03 16:33 UTC. Time now 2014-Nov-27 13:13 UTC.
Position N 59°56' E 030°17'.
Warning: this ship's position is 23 days out of date.

Length 50 m; draft 2.4 m.

Type: Towing. MMSI: 273421120.

Date/timePositionNaut miles runAvg speedWind from/ knotsBaromVisibWave heightAir tempDewpointWater temp
2014-Nov-03 16:33N 59°56' E 030°17'0 0.0
2014-Nov-03 14:33N 59°56' E 030°17'0 0.0
2014-Nov-03 13:33N 59°56' E 030°17'0 0.0
2014-Nov-03 12:33N 59°56' E 030°17'0 0.0
2014-Nov-03 11:33N 59°56' E 030°17'1 0.1
2014-Nov-03 00:33N 59°55' E 030°16'  
2014-Oct-28 00:22N 59°57' E 030°24'2 2.7
2014-Oct-27 23:33N 59°57' E 030°20'1 1.4
2014-Oct-27 22:33N 59°57' E 030°17'0 0.0
2014-Oct-27 21:33N 59°57' E 030°17'0 0.0
2014-Oct-27 20:33N 59°57' E 030°17'0 0.0
2014-Oct-27 19:33N 59°57' E 030°17'0 0.0
2014-Oct-27 18:33N 59°57' E 030°17'0 0.0
2014-Oct-27 17:33N 59°57' E 030°17'0 0.0
2014-Oct-27 16:33N 59°57' E 030°17'0 0.0
2014-Oct-27 15:33N 59°57' E 030°17'0 0.0
2014-Oct-27 14:33N 59°57' E 030°17'0 0.0
2014-Oct-27 13:33N 59°57' E 030°17'0 0.0
2014-Oct-27 12:33N 59°57' E 030°17'0 0.0
2014-Oct-27 11:33N 59°57' E 030°17'0 0.0
2014-Oct-27 10:33N 59°57' E 030°17'0 0.0
2014-Oct-27 09:33N 59°57' E 030°17'0 0.0
2014-Oct-27 08:33N 59°57' E 030°17'3 2.7
2014-Oct-27 07:32N 59°58' E 030°12'3 0.5
2014-Oct-27 00:33N 59°55' E 030°16'  

Dump ship's entire track history